Crossnore, North Carolina
Current Conditions -  °F | °C
As of 9:15 AM on Saturday 01 Nov 2014 (Local Time) from KTNB Reporting Station
Light Snow Light Snow  
Wind Chill: 21°   Ceiling: 700
Heat Index: 31°   Visibility: 1.2mi
Dew Point: 28°   Wind: 13mph
Humidity: 88%   Direction: 310°NW
Pressure: 29.81"   Gusts: 20mph
Location:  36.02°N, 81.93°W
Report Text: KTNB 011315Z AUTO 31011G17KT 1 1/4SM -SN VV007 00/M02 A2981 RMK AO2 T10051023
Loading
Personal Weather Stations






























Interactive Weather Map
Tropical Storm Tracking
New forecast layout! Learn more

10-Day Weather Forecast

Advertisements
Track Severe Weather on mobile